sensor_id;sensor_type;location;lat;lon;timestamp;pressure;altitude;pressure_sealevel;temperature;humidity
9523;BME280;63165;43.016;25.784;2023-04-06T00:00:50;99869.16;;;6.51;69.05
9523;BME280;63165;43.016;25.784;2023-04-06T00:03:18;99871.75;;;6.54;68.75
9523;BME280;63165;43.016;25.784;2023-04-06T00:05:47;99870.06;;;6.53;68.72
9523;BME280;63165;43.016;25.784;2023-04-06T00:08:14;99868.34;;;6.47;69.29
9523;BME280;63165;43.016;25.784;2023-04-06T00:10:43;99840.63;;;6.35;69.56
9523;BME280;63165;43.016;25.784;2023-04-06T00:13:11;99851.00;;;6.46;69.65
9523;BME280;63165;43.016;25.784;2023-04-06T00:15:38;99870.91;;;6.55;69.95
9523;BME280;63165;43.016;25.784;2023-04-06T00:18:05;99852.75;;;6.44;69.96
9523;BME280;63165;43.016;25.784;2023-04-06T00:20:33;99857.06;;;6.40;69.85
9523;BME280;63165;43.016;25.784;2023-04-06T00:23:00;99838.91;;;6.44;69.98
9523;BME280;63165;43.016;25.784;2023-04-06T00:25:28;99851.03;;;6.41;69.20
9523;BME280;63165;43.016;25.784;2023-04-06T00:27:56;99844.09;;;6.39;68.17
9523;BME280;63165;43.016;25.784;2023-04-06T00:30:24;99837.16;;;6.33;68.35
9523;BME280;63165;43.016;25.784;2023-04-06T00:32:51;99854.44;;;6.45;67.78
9523;BME280;63165;43.016;25.784;2023-04-06T00:35:18;99821.59;;;6.36;67.38
9523;BME280;63165;43.016;25.784;2023-04-06T00:37:46;99831.09;;;6.37;68.00
9523;BME280;63165;43.016;25.784;2023-04-06T00:40:14;99816.34;;;6.43;67.94
9523;BME280;63165;43.016;25.784;2023-04-06T00:42:42;99830.22;;;6.45;68.00
9523;BME280;63165;43.016;25.784;2023-04-06T00:45:11;99820.66;;;6.47;67.81
9523;BME280;63165;43.016;25.784;2023-04-06T00:47:39;99820.66;;;6.47;67.94
9523;BME280;63165;43.016;25.784;2023-04-06T00:50:07;99831.91;;;6.53;68.14
9523;BME280;63165;43.016;25.784;2023-04-06T00:52:35;99791.28;;;6.29;67.91
9523;BME280;63165;43.016;25.784;2023-04-06T00:55:02;99808.59;;;6.38;67.91
9523;BME280;63165;43.016;25.784;2023-04-06T00:57:31;99809.47;;;6.28;68.03
9523;BME280;63165;43.016;25.784;2023-04-06T00:59:58;99793.03;;;6.24;67.86
9523;BME280;63165;43.016;25.784;2023-04-06T01:02:27;99801.69;;;6.26;67.81
9523;BME280;63165;43.016;25.784;2023-04-06T01:04:54;99832.81;;;6.45;67.86
9523;BME280;63165;43.016;25.784;2023-04-06T01:07:22;99824.16;;;6.39;67.71
9523;BME280;63165;43.016;25.784;2023-04-06T01:09:50;99808.59;;;6.36;67.55
9523;BME280;63165;43.016;25.784;2023-04-06T01:12:17;99806.84;;;6.37;67.61
9523;BME280;63165;43.016;25.784;2023-04-06T01:14:44;99799.94;;;6.31;68.64
9523;BME280;63165;43.016;25.784;2023-04-06T01:17:12;99816.34;;;6.41;68.66
9523;BME280;63165;43.016;25.784;2023-04-06T01:19:41;99793.84;;;6.35;68.84
9523;BME280;63165;43.016;25.784;2023-04-06T01:22:08;99761.91;;;6.10;68.83
9523;BME280;63165;43.016;25.784;2023-04-06T01:24:39;99797.31;;;6.36;68.37
9523;BME280;63165;43.016;25.784;2023-04-06T01:27:07;99813.78;;;6.35;68.38
9523;BME280;63165;43.016;25.784;2023-04-06T01:29:34;99818.16;;;6.20;68.98
9523;BME280;63165;43.016;25.784;2023-04-06T01:32:01;99774.00;;;6.22;69.17
9523;BME280;63165;43.016;25.784;2023-04-06T01:34:29;99799.94;;;6.31;69.71
9523;BME280;63165;43.016;25.784;2023-04-06T01:36:56;99789.56;;;6.22;69.66
9523;BME280;63165;43.016;25.784;2023-04-06T01:39:25;99766.25;;;6.10;69.82
9523;BME280;63165;43.016;25.784;2023-04-06T01:41:54;99789.59;;;6.14;69.99
9523;BME280;63165;43.016;25.784;2023-04-06T01:44:21;99774.91;;;6.04;70.27
9523;BME280;63165;43.016;25.784;2023-04-06T01:46:49;99786.16;;;5.84;70.52
9523;BME280;63165;43.016;25.784;2023-04-06T01:49:16;99782.69;;;5.89;70.74
9523;BME280;63165;43.016;25.784;2023-04-06T01:51:43;99768.88;;;5.70;71.19
9523;BME280;63165;43.016;25.784;2023-04-06T01:54:10;99768.88;;;5.67;71.10
9523;BME280;63165;43.016;25.784;2023-04-06T01:56:38;99750.75;;;5.45;71.51
9523;BME280;63165;43.016;25.784;2023-04-06T01:59:07;99768.06;;;5.52;71.63
9523;BME280;63165;43.016;25.784;2023-04-06T02:01:34;99774.09;;;5.42;72.52
9523;BME280;63165;43.016;25.784;2023-04-06T02:04:01;99755.94;;;5.33;72.49
9523;BME280;63165;43.016;25.784;2023-04-06T02:06:28;99768.91;;;5.23;72.79
9523;BME280;63165;43.016;25.784;2023-04-06T02:08:56;99768.03;;;5.15;72.94
9523;BME280;63165;43.016;25.784;2023-04-06T02:11:23;99756.78;;;5.04;73.20
9523;BME280;63165;43.016;25.784;2023-04-06T02:13:51;99774.06;;;5.14;73.50
9523;BME280;63165;43.016;25.784;2023-04-06T02:16:20;99759.41;;;4.99;73.92
9523;BME280;63165;43.016;25.784;2023-04-06T02:18:47;99766.28;;;5.00;74.06
9523;BME280;63165;43.016;25.784;2023-04-06T02:21:15;99757.63;;;4.95;74.29
9523;BME280;63165;43.016;25.784;2023-04-06T02:23:45;99776.69;;;4.96;74.64
9523;BME280;63165;43.016;25.784;2023-04-06T02:26:12;99761.97;;;4.89;74.67
9523;BME280;63165;43.016;25.784;2023-04-06T02:28:40;99759.34;;;4.82;74.99
9523;BME280;63165;43.016;25.784;2023-04-06T02:31:10;99741.19;;;4.76;75.00
9523;BME280;63165;43.016;25.784;2023-04-06T02:33:39;99755.91;;;4.83;75.34
9523;BME280;63165;43.016;25.784;2023-04-06T02:36:07;99700.53;;;4.38;75.54
9523;BME280;63165;43.016;25.784;2023-04-06T02:38:34;99748.09;;;4.70;75.48
9523;BME280;63165;43.016;25.784;2023-04-06T02:41:01;99751.53;;;4.67;76.20
9523;BME280;63165;43.016;25.784;2023-04-06T02:43:29;99747.22;;;4.61;76.47
9523;BME280;63165;43.016;25.784;2023-04-06T02:45:56;99746.38;;;4.69;76.75
9523;BME280;63165;43.016;25.784;2023-04-06T02:48:23;99761.06;;;4.73;76.95
9523;BME280;63165;43.016;25.784;2023-04-06T02:50:52;99684.97;;;4.29;77.08
9523;BME280;63165;43.016;25.784;2023-04-06T02:53:19;99745.47;;;4.57;77.17
9523;BME280;63165;43.016;25.784;2023-04-06T02:55:47;99748.94;;;4.62;77.17
9523;BME280;63165;43.016;25.784;2023-04-06T02:58:14;99746.38;;;4.64;77.60
9523;BME280;63165;43.016;25.784;2023-04-06T03:00:41;99777.47;;;4.69;77.86
9523;BME280;63165;43.016;25.784;2023-04-06T03:03:08;99738.59;;;4.62;77.94
9523;BME280;63165;43.016;25.784;2023-04-06T03:05:36;99756.72;;;4.67;78.41
9523;BME280;63165;43.016;25.784;2023-04-06T03:08:05;99743.78;;;4.75;78.35
9523;BME280;63165;43.016;25.784;2023-04-06T03:10:32;99717.81;;;4.47;78.81
9523;BME280;63165;43.016;25.784;2023-04-06T03:12:59;99706.53;;;4.28;78.61
9523;BME280;63165;43.016;25.784;2023-04-06T03:15:27;99701.38;;;4.45;78.95
9523;BME280;63165;43.016;25.784;2023-04-06T03:17:54;99659.88;;;4.19;78.93
9523;BME280;63165;43.016;25.784;2023-04-06T03:20:21;99751.56;;;4.64;78.79
9523;BME280;63165;43.016;25.784;2023-04-06T03:22:52;99759.34;;;4.78;79.18
9523;BME280;63165;43.016;25.784;2023-04-06T03:25:20;99745.50;;;4.73;79.44
9523;BME280;63165;43.016;25.784;2023-04-06T03:27:47;99734.28;;;4.74;79.21
9523;BME280;63165;43.016;25.784;2023-04-06T03:30:15;99742.91;;;4.74;79.33
9523;BME280;63165;43.016;25.784;2023-04-06T03:32:43;99683.22;;;4.30;79.65
9523;BME280;63165;43.016;25.784;2023-04-06T03:35:10;99742.88;;;4.62;79.74
9523;BME280;63165;43.016;25.784;2023-04-06T03:37:37;99758.47;;;4.74;80.17
9523;BME280;63165;43.016;25.784;2023-04-06T03:40:06;99748.13;;;4.76;80.30
9523;BME280;63165;43.016;25.784;2023-04-06T03:42:34;99757.63;;;4.81;80.81
9523;BME280;63165;43.016;25.784;2023-04-06T03:45:02;99712.66;;;4.58;80.76
9523;BME280;63165;43.016;25.784;2023-04-06T03:47:30;99747.25;;;4.78;80.74
9523;BME280;63165;43.016;25.784;2023-04-06T03:49:57;99758.50;;;4.85;81.10
9523;BME280;63165;43.016;25.784;2023-04-06T03:52:24;99736.03;;;4.78;81.08
9523;BME280;63165;43.016;25.784;2023-04-06T03:54:52;99749.84;;;4.80;80.93
9523;BME280;63165;43.016;25.784;2023-04-06T03:57:19;99740.38;;;4.86;81.17
9523;BME280;63165;43.016;25.784;2023-04-06T03:59:48;99749.84;;;4.86;80.80
9523;BME280;63165;43.016;25.784;2023-04-06T04:02:16;99748.09;;;4.74;80.99
9523;BME280;63165;43.016;25.784;2023-04-06T04:04:43;99769.72;;;4.85;81.03
9523;BME280;63165;43.016;25.784;2023-04-06T04:07:10;99761.94;;;4.92;80.91
9523;BME280;63165;43.016;25.784;2023-04-06T04:09:37;99759.34;;;4.76;81.04
9523;BME280;63165;43.016;25.784;2023-04-06T04:12:06;99761.13;;;4.96;81.17
9523;BME280;63165;43.016;25.784;2023-04-06T04:14:33;99761.97;;;4.98;81.33
9523;BME280;63165;43.016;25.784;2023-04-06T04:17:02;99694.53;;;4.61;81.75
9523;BME280;63165;43.016;25.784;2023-04-06T04:19:29;99788.75;;;5.03;81.60
9523;BME280;63165;43.016;25.784;2023-04-06T04:21:56;99757.63;;;4.89;81.49
9523;BME280;63165;43.016;25.784;2023-04-06T04:24:24;99750.75;;;5.05;81.46
9523;BME280;63165;43.016;25.784;2023-04-06T04:26:51;99748.16;;;5.05;81.75
9523;BME280;63165;43.016;25.784;2023-04-06T04:29:21;99747.28;;;5.08;81.61
9523;BME280;63165;43.016;25.784;2023-04-06T04:31:49;99742.09;;;5.03;81.99
9523;BME280;63165;43.016;25.784;2023-04-06T04:34:19;99745.56;;;5.05;81.84
9523;BME280;63165;43.016;25.784;2023-04-06T04:36:49;99761.13;;;5.17;81.88
9523;BME280;63165;43.016;25.784;2023-04-06T04:39:16;99667.75;;;4.62;81.63
9523;BME280;63165;43.016;25.784;2023-04-06T04:41:44;99768.91;;;5.22;81.88
9523;BME280;63165;43.016;25.784;2023-04-06T04:44:11;99781.88;;;5.27;81.93
9523;BME280;63165;43.016;25.784;2023-04-06T04:46:39;99723.94;;;4.98;81.92
9523;BME280;63165;43.016;25.784;2023-04-06T04:49:07;99678.16;;;4.79;82.10
9523;BME280;63165;43.016;25.784;2023-04-06T04:51:35;99651.34;;;4.63;81.63
9523;BME280;63165;43.016;25.784;2023-04-06T04:54:05;99718.75;;;5.15;81.96
9523;BME280;63165;43.016;25.784;2023-04-06T04:56:33;99747.28;;;5.32;81.40
9523;BME280;63165;43.016;25.784;2023-04-06T04:59:00;99750.75;;;5.39;81.40
9523;BME280;63165;43.016;25.784;2023-04-06T05:01:27;99699.75;;;5.21;81.49
9523;BME280;63165;43.016;25.784;2023-04-06T05:03:56;99758.53;;;5.54;81.36
9523;BME280;63165;43.016;25.784;2023-04-06T05:06:24;99745.56;;;5.43;81.46
9523;BME280;63165;43.016;25.784;2023-04-06T05:08:54;99735.19;;;5.47;81.16
9523;BME280;63165;43.016;25.784;2023-04-06T05:11:24;99761.97;;;5.66;81.14
9523;BME280;63165;43.016;25.784;2023-04-06T05:13:52;99657.38;;;5.14;80.68
9523;BME280;63165;43.016;25.784;2023-04-06T05:16:34;99720.47;;;5.50;80.77
9523;BME280;63165;43.016;25.784;2023-04-06T05:19:01;99762.81;;;5.77;80.47
9523;BME280;63165;43.016;25.784;2023-04-06T05:21:29;99750.72;;;5.80;80.50
9523;BME280;63165;43.016;25.784;2023-04-06T05:23:58;99750.69;;;5.96;80.37
9523;BME280;63165;43.016;25.784;2023-04-06T05:26:27;99760.22;;;5.95;80.11
9523;BME280;63165;43.016;25.784;2023-04-06T05:28:55;99748.09;;;5.96;79.97
9523;BME280;63165;43.016;25.784;2023-04-06T05:31:22;99744.63;;;6.05;79.95
9523;BME280;63165;43.016;25.784;2023-04-06T05:33:49;99752.44;;;5.95;80.30
9523;BME280;63165;43.016;25.784;2023-04-06T05:36:19;99736.78;;;6.20;80.48
9523;BME280;63165;43.016;25.784;2023-04-06T05:38:46;99733.31;;;6.18;80.50
9523;BME280;63165;43.016;25.784;2023-04-06T05:41:17;99729.81;;;6.25;80.02
9523;BME280;63165;43.016;25.784;2023-04-06T05:43:45;99686.59;;;6.12;79.56
9523;BME280;63165;43.016;25.784;2023-04-06T05:46:13;99712.50;;;6.22;79.36
9523;BME280;63165;43.016;25.784;2023-04-06T05:48:40;99717.66;;;6.36;79.49
9523;BME280;63165;43.016;25.784;2023-04-06T05:51:10;99739.16;;;6.60;78.85
9523;BME280;63165;43.016;25.784;2023-04-06T05:53:38;99730.50;;;6.59;78.52
9523;BME280;63165;43.016;25.784;2023-04-06T05:56:05;99736.50;;;6.75;78.40
9523;BME280;63165;43.016;25.784;2023-04-06T05:58:34;99742.47;;;6.88;77.47
9523;BME280;63165;43.016;25.784;2023-04-06T06:01:02;99721.69;;;6.87;76.62
9523;BME280;63165;43.016;25.784;2023-04-06T06:03:30;99711.28;;;6.85;75.61
9523;BME280;63165;43.016;25.784;2023-04-06T06:06:01;99709.53;;;6.87;75.33
9523;BME280;63165;43.016;25.784;2023-04-06T06:08:29;99714.63;;;7.04;74.33
9523;BME280;63165;43.016;25.784;2023-04-06T06:10:57;99724.97;;;7.12;73.73
9523;BME280;63165;43.016;25.784;2023-04-06T06:13:24;99727.56;;;7.13;72.70
9523;BME280;63165;43.016;25.784;2023-04-06T06:15:53;99710.25;;;7.11;72.15
9523;BME280;63165;43.016;25.784;2023-04-06T06:18:20;99615.41;;;6.40;71.38
9523;BME280;63165;43.016;25.784;2023-04-06T06:20:48;99629.06;;;6.69;70.73
9523;BME280;63165;43.016;25.784;2023-04-06T06:23:15;99714.47;;;7.21;69.92
9523;BME280;63165;43.016;25.784;2023-04-06T06:25:42;99727.56;;;7.15;70.09
9523;BME280;63165;43.016;25.784;2023-04-06T06:28:10;99609.25;;;6.52;69.65
9523;BME280;63165;43.016;25.784;2023-04-06T06:30:38;99642.91;;;6.72;68.95
9523;BME280;63165;43.016;25.784;2023-04-06T06:33:06;99624.72;;;6.69;69.04
9523;BME280;63165;43.016;25.784;2023-04-06T06:35:34;99645.44;;;6.82;68.36
9523;BME280;63165;43.016;25.784;2023-04-06T06:38:01;99676.44;;;7.06;68.37
9523;BME280;63165;43.016;25.784;2023-04-06T06:40:28;99555.66;;;6.42;68.00
9523;BME280;63165;43.016;25.784;2023-04-06T06:42:56;99631.69;;;6.67;68.07
9523;BME280;63165;43.016;25.784;2023-04-06T06:45:23;99636.03;;;6.67;67.88
9523;BME280;63165;43.016;25.784;2023-04-06T06:47:51;99607.50;;;6.56;67.25
9523;BME280;63165;43.016;25.784;2023-04-06T06:50:20;99716.94;;;7.39;66.99
9523;BME280;63165;43.016;25.784;2023-04-06T06:52:47;99759.38;;;7.46;67.84
9523;BME280;63165;43.016;25.784;2023-04-06T06:55:15;99735.06;;;7.47;67.21
9523;BME280;63165;43.016;25.784;2023-04-06T06:57:45;99727.25;;;7.47;66.88
9523;BME280;63165;43.016;25.784;2023-04-06T07:00:14;99729.88;;;7.44;66.61
9523;BME280;63165;43.016;25.784;2023-04-06T07:02:41;99720.44;;;7.34;66.05
9523;BME280;63165;43.016;25.784;2023-04-06T07:05:09;99717.97;;;7.18;66.36
9523;BME280;63165;43.016;25.784;2023-04-06T07:07:46;99649.59;;;7.03;66.38
9523;BME280;63165;43.016;25.784;2023-04-06T07:10:13;99671.31;;;6.97;66.17
9523;BME280;63165;43.016;25.784;2023-04-06T07:12:40;99711.72;;;7.43;65.40
9523;BME280;63165;43.016;25.784;2023-04-06T07:15:10;99652.09;;;7.16;65.94
9523;BME280;63165;43.016;25.784;2023-04-06T07:17:38;99716.69;;;7.63;65.62
9523;BME280;63165;43.016;25.784;2023-04-06T07:20:07;99661.59;;;7.17;65.34
9523;BME280;63165;43.016;25.784;2023-04-06T07:22:34;99707.13;;;7.66;64.96
9523;BME280;63165;43.016;25.784;2023-04-06T07:25:04;99723.53;;;7.74;64.89
9523;BME280;63165;43.016;25.784;2023-04-06T07:27:31;99696.72;;;7.65;64.76
9523;BME280;63165;43.016;25.784;2023-04-06T07:29:58;99701.06;;;7.64;64.07
9523;BME280;63165;43.016;25.784;2023-04-06T07:32:26;99704.47;;;7.71;63.69
9523;BME280;63165;43.016;25.784;2023-04-06T07:34:54;99732.13;;;7.84;63.43
9523;BME280;63165;43.016;25.784;2023-04-06T07:37:21;99714.75;;;7.83;64.00
9523;BME280;63165;43.016;25.784;2023-04-06T07:39:48;99722.53;;;7.89;63.37
9523;BME280;63165;43.016;25.784;2023-04-06T07:42:17;99719.78;;;8.00;62.95
9523;BME280;63165;43.016;25.784;2023-04-06T07:44:44;99704.28;;;7.88;62.54
9523;BME280;63165;43.016;25.784;2023-04-06T07:47:12;99719.78;;;7.98;61.79
9523;BME280;63165;43.016;25.784;2023-04-06T07:49:39;99735.28;;;8.09;62.26
9523;BME280;63165;43.016;25.784;2023-04-06T07:52:06;99722.22;;;8.14;62.17
9523;BME280;63165;43.016;25.784;2023-04-06T07:54:33;99723.06;;;8.16;62.19
9523;BME280;63165;43.016;25.784;2023-04-06T07:57:01;99729.16;;;8.13;62.19
9523;BME280;63165;43.016;25.784;2023-04-06T07:59:30;99646.28;;;7.72;62.13
9523;BME280;63165;43.016;25.784;2023-04-06T08:01:58;99661.78;;;7.84;61.68
9523;BME280;63165;43.016;25.784;2023-04-06T08:04:25;99716.94;;;8.20;62.12
9523;BME280;63165;43.016;25.784;2023-04-06T08:06:55;99690.06;;;8.16;61.80
9523;BME280;63165;43.016;25.784;2023-04-06T08:09:22;99640.94;;;7.86;61.56
9523;BME280;63165;43.016;25.784;2023-04-06T08:11:50;99727.16;;;8.35;61.23
9523;BME280;63165;43.016;25.784;2023-04-06T08:14:17;99680.53;;;8.14;61.28
9523;BME280;63165;43.016;25.784;2023-04-06T08:16:46;99710.78;;;8.27;62.00
9523;BME280;63165;43.016;25.784;2023-04-06T08:19:14;99691.72;;;8.22;61.95
9523;BME280;63165;43.016;25.784;2023-04-06T08:21:42;99727.03;;;8.48;61.84
9523;BME280;63165;43.016;25.784;2023-04-06T08:24:10;99689.00;;;8.31;61.70
9523;BME280;63165;43.016;25.784;2023-04-06T08:26:37;99705.28;;;8.50;60.91
9523;BME280;63165;43.016;25.784;2023-04-06T08:29:05;99709.59;;;8.53;60.12
9523;BME280;63165;43.016;25.784;2023-04-06T08:31:33;99730.38;;;8.58;60.54
9523;BME280;63165;43.016;25.784;2023-04-06T08:34:03;99712.09;;;8.61;60.59
9523;BME280;63165;43.016;25.784;2023-04-06T08:36:31;99689.72;;;8.46;60.96
9523;BME280;63165;43.016;25.784;2023-04-06T08:38:59;99693.09;;;8.51;60.62
9523;BME280;63165;43.016;25.784;2023-04-06T08:41:27;99682.78;;;8.43;60.44
9523;BME280;63165;43.016;25.784;2023-04-06T08:43:57;99669.78;;;8.39;60.29
9523;BME280;63165;43.016;25.784;2023-04-06T08:46:24;99704.06;;;8.74;60.08
9523;BME280;63165;43.016;25.784;2023-04-06T08:48:55;99712.69;;;8.80;59.91
9523;BME280;63165;43.016;25.784;2023-04-06T08:51:25;99674.72;;;8.60;59.53
9523;BME280;63165;43.016;25.784;2023-04-06T08:53:54;99689.31;;;8.73;59.64
9523;BME280;63165;43.016;25.784;2023-04-06T08:56:26;99674.66;;;8.66;59.87
9523;BME280;63165;43.016;25.784;2023-04-06T08:58:55;99709.94;;;8.90;60.11
9523;BME280;63165;43.016;25.784;2023-04-06T09:01:25;99699.44;;;8.93;60.10
9523;BME280;63165;43.016;25.784;2023-04-06T09:03:56;99697.66;;;8.96;60.20
9523;BME280;63165;43.016;25.784;2023-04-06T09:06:25;99703.78;;;8.93;60.20
9523;BME280;63165;43.016;25.784;2023-04-06T09:08:53;99685.00;;;8.69;59.99
9523;BME280;63165;43.016;25.784;2023-04-06T09:11:22;99693.50;;;8.82;59.76
9523;BME280;63165;43.016;25.784;2023-04-06T09:13:50;99694.06;;;9.03;60.03
9523;BME280;63165;43.016;25.784;2023-04-06T09:16:26;99595.88;;;8.44;60.12
9523;BME280;63165;43.016;25.784;2023-04-06T09:18:53;99672.34;;;9.01;60.40
9523;BME280;63165;43.016;25.784;2023-04-06T09:21:20;99678.34;;;9.07;59.91
9523;BME280;63165;43.016;25.784;2023-04-06T09:23:58;99649.84;;;8.95;58.81
9523;BME280;63165;43.016;25.784;2023-04-06T09:26:26;99705.84;;;9.27;58.77
9523;BME280;63165;43.016;25.784;2023-04-06T09:28:55;99666.94;;;9.15;58.28
9523;BME280;63165;43.016;25.784;2023-04-06T09:31:23;99681.53;;;9.25;57.83
9523;BME280;63165;43.016;25.784;2023-04-06T09:33:51;99679.72;;;9.28;57.17
9523;BME280;63165;43.016;25.784;2023-04-06T09:36:19;99661.59;;;9.21;56.61
9523;BME280;63165;43.016;25.784;2023-04-06T09:38:55;99663.16;;;9.29;57.37
9523;BME280;63165;43.016;25.784;2023-04-06T09:41:23;99631.25;;;9.13;57.68
9523;BME280;63165;43.016;25.784;2023-04-06T09:43:52;99673.38;;;9.43;57.79
9523;BME280;63165;43.016;25.784;2023-04-06T09:46:21;99627.88;;;9.07;57.58
9523;BME280;63165;43.016;25.784;2023-04-06T09:48:53;99687.00;;;9.59;57.63
9523;BME280;63165;43.016;25.784;2023-04-06T09:51:21;99679.13;;;9.61;57.28
9523;BME280;63165;43.016;25.784;2023-04-06T09:53:54;99643.88;;;9.38;56.88
9523;BME280;63165;43.016;25.784;2023-04-06T09:56:28;99655.63;;;9.61;56.43
9523;BME280;63165;43.016;25.784;2023-04-06T09:59:02;99645.25;;;9.58;56.97
9523;BME280;63165;43.016;25.784;2023-04-06T10:01:33;99672.72;;;9.79;56.60
9523;BME280;63165;43.016;25.784;2023-04-06T10:04:12;99670.03;;;9.82;55.63
9523;BME280;63165;43.016;25.784;2023-04-06T10:06:40;99665.69;;;9.82;55.65
9523;BME280;63165;43.016;25.784;2023-04-06T10:09:09;99668.91;;;9.95;55.15
9523;BME280;63165;43.016;25.784;2023-04-06T10:11:37;99669.59;;;10.03;55.12
9523;BME280;63165;43.016;25.784;2023-04-06T10:14:05;99660.63;;;10.15;55.26
9523;BME280;63165;43.016;25.784;2023-04-06T10:16:33;99660.38;;;10.27;54.63
9523;BME280;63165;43.016;25.784;2023-04-06T10:19:09;99655.88;;;10.36;54.66
9523;BME280;63165;43.016;25.784;2023-04-06T10:21:38;99652.97;;;10.49;55.34
9523;BME280;63165;43.016;25.784;2023-04-06T10:24:10;99643.13;;;10.59;54.53
9523;BME280;63165;43.016;25.784;2023-04-06T10:26:37;99623.09;;;10.58;54.05
9523;BME280;63165;43.016;25.784;2023-04-06T10:29:06;99640.94;;;10.78;54.20
9523;BME280;63165;43.016;25.784;2023-04-06T10:31:39;99648.38;;;10.95;53.90
9523;BME280;63165;43.016;25.784;2023-04-06T10:34:08;99654.97;;;11.12;53.63
9523;BME280;63165;43.016;25.784;2023-04-06T10:36:36;99638.09;;;11.22;53.55
9523;BME280;63165;43.016;25.784;2023-04-06T10:39:05;99625.78;;;11.25;53.10
9523;BME280;63165;43.016;25.784;2023-04-06T10:41:36;99641.59;;;11.55;53.00
9523;BME280;63165;43.016;25.784;2023-04-06T10:44:04;99630.13;;;11.59;52.81
9523;BME280;63165;43.016;25.784;2023-04-06T10:46:33;99624.72;;;11.65;51.94
9523;BME280;63165;43.016;25.784;2023-04-06T10:49:10;99633.19;;;11.75;50.44
9523;BME280;63165;43.016;25.784;2023-04-06T10:51:39;99618.53;;;11.68;50.51
9523;BME280;63165;43.016;25.784;2023-04-06T10:54:06;99623.59;;;11.74;50.70
9523;BME280;63165;43.016;25.784;2023-04-06T10:56:37;99632.81;;;11.88;50.50
9523;BME280;63165;43.016;25.784;2023-04-06T10:59:05;99624.91;;;11.91;50.34
9523;BME280;63165;43.016;25.784;2023-04-06T11:01:33;99603.19;;;11.85;50.27
9523;BME280;63165;43.016;25.784;2023-04-06T11:04:00;99607.22;;;11.99;50.62
9523;BME280;63165;43.016;25.784;2023-04-06T11:06:29;99613.81;;;12.12;49.73
9523;BME280;63165;43.016;25.784;2023-04-06T11:08:58;99612.88;;;12.13;49.88
9523;BME280;63165;43.016;25.784;2023-04-06T11:11:26;99618.53;;;12.29;50.29
9523;BME280;63165;43.016;25.784;2023-04-06T11:13:56;99616.56;;;12.36;50.00
9523;BME280;63165;43.016;25.784;2023-04-06T11:16:25;99597.41;;;12.34;50.33
9523;BME280;63165;43.016;25.784;2023-04-06T11:18:54;99601.63;;;12.38;50.33
9523;BME280;63165;43.016;25.784;2023-04-06T11:21:33;99598.25;;;12.34;50.52
9523;BME280;63165;43.016;25.784;2023-04-06T11:24:08;99595.94;;;12.25;50.77
9523;BME280;63165;43.016;25.784;2023-04-06T11:26:40;99583.91;;;12.18;50.99
9523;BME280;63165;43.016;25.784;2023-04-06T11:29:09;99591.94;;;12.40;51.22
9523;BME280;63165;43.016;25.784;2023-04-06T11:31:40;99594.56;;;12.40;50.38
9523;BME280;63165;43.016;25.784;2023-04-06T11:34:12;99577.97;;;12.39;49.96
9523;BME280;63165;43.016;25.784;2023-04-06T11:36:41;99587.34;;;12.48;50.12
9523;BME280;63165;43.016;25.784;2023-04-06T11:39:08;99568.16;;;12.46;51.10
9523;BME280;63165;43.016;25.784;2023-04-06T11:41:36;99561.00;;;12.51;51.56
9523;BME280;63165;43.016;25.784;2023-04-06T11:44:03;99593.41;;;12.77;51.42
9523;BME280;63165;43.016;25.784;2023-04-06T11:46:32;99584.16;;;12.92;50.84
9523;BME280;63165;43.016;25.784;2023-04-06T11:49:00;99587.28;;;13.03;50.50
9523;BME280;63165;43.016;25.784;2023-04-06T11:51:28;99579.25;;;13.08;49.61
9523;BME280;63165;43.016;25.784;2023-04-06T11:53:55;99574.00;;;13.08;49.52
9523;BME280;63165;43.016;25.784;2023-04-06T11:56:26;99574.47;;;13.19;49.08
9523;BME280;63165;43.016;25.784;2023-04-06T11:58:55;99571.28;;;13.36;49.22
9523;BME280;63165;43.016;25.784;2023-04-06T12:01:23;99582.41;;;13.43;48.76
9523;BME280;63165;43.016;25.784;2023-04-06T12:03:52;99576.38;;;13.40;47.83
9523;BME280;63165;43.016;25.784;2023-04-06T12:06:19;99571.38;;;13.33;47.08
9523;BME280;63165;43.016;25.784;2023-04-06T12:08:47;99578.09;;;13.42;46.63
9523;BME280;63165;43.016;25.784;2023-04-06T12:11:14;99547.97;;;13.25;46.37
9523;BME280;63165;43.016;25.784;2023-04-06T12:13:41;99565.19;;;13.35;46.31
9523;BME280;63165;43.016;25.784;2023-04-06T12:16:08;99571.25;;;13.37;45.76
9523;BME280;63165;43.016;25.784;2023-04-06T12:18:36;99558.06;;;13.12;46.10
9523;BME280;63165;43.016;25.784;2023-04-06T12:21:09;99568.53;;;13.14;46.88
9523;BME280;63165;43.016;25.784;2023-04-06T12:23:36;99560.13;;;13.04;47.18
9523;BME280;63165;43.016;25.784;2023-04-06T12:26:03;99565.16;;;13.10;47.81
9523;BME280;63165;43.016;25.784;2023-04-06T12:28:30;99562.38;;;13.15;48.20
9523;BME280;63165;43.016;25.784;2023-04-06T12:30:58;99557.25;;;13.10;48.25
9523;BME280;63165;43.016;25.784;2023-04-06T12:33:25;99558.91;;;13.13;47.99
9523;BME280;63165;43.016;25.784;2023-04-06T12:35:52;99536.44;;;13.06;48.00
9523;BME280;63165;43.016;25.784;2023-04-06T12:38:21;99556.41;;;13.10;47.61
9523;BME280;63165;43.016;25.784;2023-04-06T12:40:48;99555.63;;;13.08;48.22
9523;BME280;63165;43.016;25.784;2023-04-06T12:43:15;99551.25;;;13.07;48.44
9523;BME280;63165;43.016;25.784;2023-04-06T12:45:42;99540.00;;;13.03;47.91
9523;BME280;63165;43.016;25.784;2023-04-06T12:48:09;99553.31;;;12.98;47.59
9523;BME280;63165;43.016;25.784;2023-04-06T12:50:37;99552.44;;;12.98;48.56
9523;BME280;63165;43.016;25.784;2023-04-06T12:53:04;99560.81;;;13.09;48.74
9523;BME280;63165;43.016;25.784;2023-04-06T12:55:33;99550.94;;;13.16;48.31
9523;BME280;63165;43.016;25.784;2023-04-06T12:58:01;99557.84;;;13.18;47.83
9523;BME280;63165;43.016;25.784;2023-04-06T13:00:28;99555.06;;;13.23;47.30
9523;BME280;63165;43.016;25.784;2023-04-06T13:02:56;99546.38;;;13.21;47.99
9523;BME280;63165;43.016;25.784;2023-04-06T13:05:23;99551.72;;;13.18;47.68
9523;BME280;63165;43.016;25.784;2023-04-06T13:07:51;99514.22;;;12.89;47.76
9523;BME280;63165;43.016;25.784;2023-04-06T13:10:18;99540.13;;;13.00;48.34
9523;BME280;63165;43.016;25.784;2023-04-06T13:12:47;99537.66;;;12.95;48.69